Time;durP1;ratioP1;P1;durP2;ratioP2;P2;SDS_P1;SDS_P2;PMS_P1;PMS_P2;Temp;Humidity;BMP_temperature;BMP_pressure;BME280_temperature;BME280_humidity;BME280_pressure;Samples;Min_cycle;Max_cycle;Signal;HPM_P1;HPM_P2
2021/07/20 00:01:39;;;;;;;12.35;8.95;;;16.30;99.90;;;;;;5012201;28;20443;-72
2021/07/20 00:04:05;;;;;;;11.70;8.52;;;16.30;99.90;;;;;;5011173;28;20482;-72
2021/07/20 00:06:31;;;;;;;11.18;8.63;;;16.20;99.90;;;;;;5012148;28;20018;-73
2021/07/20 00:09:00;;;;;;;11.93;8.48;;;16.20;99.90;;;;;;5012116;28;20030;-73
2021/07/20 00:11:26;;;;;;;14.65;9.15;;;16.10;99.90;;;;;;5011414;28;20046;-73
2021/07/20 00:13:51;;;;;;;12.88;8.68;;;16.70;99.90;;;;;;5012162;28;20378;-72
2021/07/20 00:16:17;;;;;;;13.45;8.93;;;16.70;99.90;;;;;;5012489;28;20037;-73
2021/07/20 00:18:43;;;;;;;13.10;8.95;;;16.20;99.90;;;;;;5011440;28;20439;-72
2021/07/20 00:21:09;;;;;;;10.70;8.50;;;16.70;99.90;;;;;;5011976;28;20515;-73
2021/07/20 00:23:35;;;;;;;14.15;9.43;;;16.20;99.90;;;;;;5011581;28;20032;-72
2021/07/20 00:26:02;;;;;;;12.63;9.18;;;16.10;99.90;;;;;;5011885;28;20381;-73
2021/07/20 00:28:31;;;;;;;12.77;9.60;;;16.10;99.90;;;;;;5002642;28;20504;-73
2021/07/20 00:30:56;;;;;;;12.85;8.68;;;16.90;99.90;;;;;;5006879;28;20470;-73
2021/07/20 00:33:22;;;;;;;12.93;9.40;;;16.30;99.90;;;;;;5012336;28;20026;-73
2021/07/20 00:35:47;;;;;;;14.90;9.05;;;17.50;99.90;;;;;;5011235;28;20017;-72
2021/07/20 00:38:15;;;;;;;15.38;9.25;;;16.00;99.90;;;;;;5011531;28;20069;-72
2021/07/20 00:40:40;;;;;;;13.63;9.13;;;16.00;99.90;;;;;;5011944;28;20470;-72
2021/07/20 00:43:06;;;;;;;14.82;9.35;;;16.00;99.90;;;;;;5011663;28;20034;-72
2021/07/20 00:45:33;;;;;;;17.88;10.10;;;15.90;99.90;;;;;;5011234;28;20057;-72
2021/07/20 00:47:59;;;;;;;13.43;9.45;;;15.90;99.90;;;;;;5011577;28;20477;-72
2021/07/20 00:50:31;;;;;;;17.05;9.18;;;15.90;99.90;;;;;;5011794;28;20018;-73
2021/07/20 00:52:57;;;;;;;15.13;9.48;;;15.90;99.90;;;;;;5010673;28;20022;-73
2021/07/20 00:55:23;;;;;;;15.27;8.98;;;15.90;99.90;;;;;;5011578;28;20030;-73
2021/07/20 00:57:50;;;;;;;16.48;9.27;;;15.90;99.90;;;;;;5014575;28;20034;-72
2021/07/20 01:00:18;;;;;;;14.88;9.88;;;15.80;99.90;;;;;;5014854;28;20367;-72
2021/07/20 01:02:44;;;;;;;12.77;9.52;;;15.80;99.90;;;;;;5014662;28;20481;-72
2021/07/20 01:05:17;;;;;;;17.55;10.73;;;15.80;99.90;;;;;;5015434;28;20033;-73
2021/07/20 01:07:44;;;;;;;18.10;9.57;;;15.80;99.90;;;;;;5014440;28;20441;-72
2021/07/20 01:10:10;;;;;;;16.85;9.95;;;15.70;99.90;;;;;;5015400;28;20101;-72
2021/07/20 01:12:39;;;;;;;14.95;8.93;;;15.70;99.90;;;;;;5001273;28;20038;-72
2021/07/20 01:15:06;;;;;;;14.32;10.45;;;15.70;99.90;;;;;;5014437;28;20470;-71
2021/07/20 01:17:36;;;;;;;16.33;10.68;;;15.70;99.90;;;;;;5015111;28;20033;-72
2021/07/20 01:20:07;;;;;;;12.52;9.32;;;16.20;99.90;;;;;;5014164;28;20357;-72
2021/07/20 01:22:35;;;;;;;17.17;10.52;;;15.60;99.90;;;;;;5002084;28;20053;-72
2021/07/20 01:25:09;;;;;;;17.63;11.18;;;15.60;99.90;;;;;;5001304;28;20117;-73
2021/07/20 01:27:38;;;;;;;16.77;10.32;;;15.60;99.90;;;;;;5001653;28;20557;-71
2021/07/20 01:30:05;;;;;;;19.80;11.70;;;15.50;99.90;;;;;;5008799;28;20049;-73
2021/07/20 01:32:31;;;;;;;16.60;11.05;;;15.50;99.90;;;;;;5006730;28;20053;-72
2021/07/20 01:34:57;;;;;;;18.05;10.07;;;15.60;99.90;;;;;;4999825;28;20053;-72
2021/07/20 01:37:24;;;;;;;18.40;10.02;;;15.50;99.90;;;;;;5015035;28;20088;-74
2021/07/20 01:39:50;;;;;;;19.55;10.45;;;15.40;99.90;;;;;;5014295;28;20021;-73
2021/07/20 01:42:17;;;;;;;30.73;12.77;;;15.40;99.90;;;;;;5014234;28;20030;-72
2021/07/20 01:44:43;;;;;;;22.73;12.27;;;15.40;99.90;;;;;;5015166;28;20033;-73
2021/07/20 01:47:10;;;;;;;16.77;11.45;;;15.30;99.90;;;;;;5015406;28;20048;-72
2021/07/20 01:49:38;;;;;;;16.88;10.70;;;15.30;99.90;;;;;;5014274;28;20029;-73
2021/07/20 01:52:04;;;;;;;18.83;11.20;;;15.30;99.90;;;;;;5011268;28;20064;-74
2021/07/20 01:54:30;;;;;;;28.77;12.23;;;15.30;99.90;;;;;;5005328;28;20098;-72
2021/07/20 01:56:56;;;;;;;22.27;12.65;;;15.30;99.90;;;;;;5013546;28;20026;-73
2021/07/20 01:59:21;;;;;;;22.65;12.35;;;15.20;99.90;;;;;;5014759;28;20085;-73
2021/07/20 02:10:13;;;;;;;21.27;13.60;;;15.20;99.90;;;;;;5005973;28;20041;-72
2021/07/20 02:12:42;;;;;;;22.85;14.10;;;15.10;99.90;;;;;;5014075;28;20381;-73
2021/07/20 02:15:09;;;;;;;24.80;14.77;;;15.10;99.90;;;;;;5014105;28;20033;-72
2021/07/20 02:17:41;;;;;;;25.17;15.73;;;15.10;99.90;;;;;;4999564;28;20105;-72
2021/07/20 02:20:10;;;;;;;23.13;14.27;;;15.10;99.90;;;;;;5003395;28;20030;-73
2021/07/20 02:22:37;;;;;;;23.08;14.45;;;15.20;99.90;;;;;;5010739;28;20021;-72
2021/07/20 02:25:05;;;;;;;26.40;14.70;;;15.40;99.90;;;;;;5012978;28;20388;-71
2021/07/20 02:27:31;;;;;;;32.58;16.15;;;15.00;99.90;;;;;;5014023;28;20026;-72
2021/07/20 02:29:59;;;;;;;22.45;15.38;;;15.00;99.90;;;;;;5013740;28;20049;-72
2021/07/20 02:32:28;;;;;;;21.67;15.00;;;15.00;99.90;;;;;;5013167;28;20022;-72
2021/07/20 02:34:57;;;;;;;31.35;16.52;;;14.90;99.90;;;;;;5013394;28;20053;-72
2021/07/20 02:37:25;;;;;;;27.13;15.75;;;15.30;99.90;;;;;;5013319;28;20117;-73
2021/07/20 02:39:51;;;;;;;28.08;15.70;;;14.90;99.90;;;;;;5013262;28;20465;-72
2021/07/20 02:42:19;;;;;;;26.67;17.00;;;14.90;99.90;;;;;;5013804;28;20026;-72
2021/07/20 02:44:45;;;;;;;24.40;15.55;;;14.90;99.90;;;;;;5012654;28;20061;-72
2021/07/20 02:47:12;;;;;;;24.50;14.85;;;14.90;99.90;;;;;;5013443;28;20425;-73
2021/07/20 02:49:39;;;;;;;27.58;16.15;;;15.10;99.90;;;;;;5013516;28;20063;-73
2021/07/20 02:52:06;;;;;;;26.05;16.20;;;14.80;99.90;;;;;;5012244;28;20117;-72
2021/07/20 02:54:32;;;;;;;24.02;14.60;;;14.80;99.90;;;;;;5014076;28;20026;-72
2021/07/20 02:56:58;;;;;;;18.30;13.38;;;15.00;99.90;;;;;;5013388;28;20167;-72
2021/07/20 02:59:26;;;;;;;28.42;15.27;;;14.70;99.90;;;;;;5013574;28;20034;-72
2021/07/20 03:01:55;;;;;;;27.77;15.65;;;14.70;99.90;;;;;;5014147;28;20053;-73
2021/07/20 03:04:21;;;;;;;27.75;16.98;;;14.70;99.90;;;;;;5013464;28;20037;-72
2021/07/20 03:06:51;;;;;;;30.45;17.42;;;14.60;99.90;;;;;;5012646;28;20017;-73
2021/07/20 03:09:20;;;;;;;33.95;16.50;;;14.60;99.90;;;;;;5013287;28;20461;-73
2021/07/20 03:11:49;;;;;;;29.65;16.38;;;14.60;99.90;;;;;;5013284;28;20409;-74
2021/07/20 03:14:19;;;;;;;27.98;16.98;;;14.60;99.90;;;;;;5013146;28;20026;-72
2021/07/20 03:16:45;;;;;;;29.65;17.38;;;14.50;99.90;;;;;;5012968;28;20537;-72
2021/07/20 03:19:16;;;;;;;32.38;16.52;;;14.50;99.90;;;;;;5012302;28;20088;-72
2021/07/20 03:21:47;;;;;;;33.42;16.55;;;14.40;99.90;;;;;;5012218;28;20018;-72
2021/07/20 03:24:13;;;;;;;30.08;16.08;;;14.50;99.90;;;;;;5010760;28;20034;-73
2021/07/20 03:26:39;;;;;;;29.02;16.80;;;14.60;99.90;;;;;;5000699;28;20025;-72
2021/07/20 03:29:07;;;;;;;37.13;17.73;;;14.80;99.90;;;;;;5012464;28;20132;-71
2021/07/20 03:31:36;;;;;;;31.60;18.27;;;14.50;99.90;;;;;;5013076;28;20029;-71
2021/07/20 03:34:04;;;;;;;28.80;17.27;;;14.50;99.90;;;;;;5011948;28;20083;-73
2021/07/20 03:36:30;;;;;;;33.67;18.35;;;14.50;99.90;;;;;;5012817;28;20029;-72
2021/07/20 03:38:56;;;;;;;34.60;19.23;;;14.60;99.90;;;;;;5012525;28;20041;-73
2021/07/20 03:41:26;;;;;;;37.00;19.55;;;14.50;99.90;;;;;;5011721;28;20018;-72
2021/07/20 03:43:54;;;;;;;35.37;19.97;;;14.50;99.90;;;;;;5008208;28;20018;-72
2021/07/20 03:46:19;;;;;;;31.10;18.90;;;14.50;99.90;;;;;;5012850;28;20336;-71
2021/07/20 03:48:45;;;;;;;35.33;19.95;;;14.50;99.90;;;;;;5011422;28;20021;-72
2021/07/20 03:51:11;;;;;;;35.47;21.13;;;14.50;99.90;;;;;;5012305;28;20053;-72
2021/07/20 03:53:42;;;;;;;37.70;19.92;;;14.40;99.90;;;;;;5012371;28;20028;-73
2021/07/20 03:56:08;;;;;;;38.53;21.08;;;14.40;99.90;;;;;;5002328;28;20030;-73
2021/07/20 03:58:35;;;;;;;35.00;19.15;;;14.40;99.90;;;;;;5007348;28;20045;-72
2021/07/20 04:01:02;;;;;;;41.50;20.88;;;14.40;99.90;;;;;;5012183;28;20037;-72
2021/07/20 04:03:30;;;;;;;38.22;19.85;;;14.40;99.90;;;;;;5011619;28;20029;-72
2021/07/20 04:05:59;;;;;;;34.55;18.20;;;14.40;99.90;;;;;;5011904;28;20396;-73
2021/07/20 04:08:26;;;;;;;31.17;18.20;;;14.40;99.90;;;;;;5012411;28;20029;-72
2021/07/20 04:10:53;;;;;;;40.53;19.20;;;14.40;99.90;;;;;;5011478;28;20061;-71
2021/07/20 04:13:21;;;;;;;37.17;18.95;;;14.40;99.90;;;;;;5012721;28;20037;-72
2021/07/20 04:15:55;;;;;;;40.90;20.23;;;14.40;99.90;;;;;;5011376;28;20018;-72
2021/07/20 04:18:21;;;;;;;31.90;19.38;;;14.40;99.90;;;;;;5012694;28;20117;-72
2021/07/20 04:20:50;;;;;;;35.33;17.83;;;14.40;99.90;;;;;;5012298;28;20438;-72
2021/07/20 04:23:19;;;;;;;43.05;18.95;;;14.40;99.90;;;;;;5011876;28;20026;-72
2021/07/20 04:25:47;;;;;;;44.28;18.67;;;14.40;99.90;;;;;;5012150;28;20029;-72
2021/07/20 04:28:15;;;;;;;34.20;19.13;;;14.40;99.90;;;;;;5012784;28;20049;-72
2021/07/20 04:30:42;;;;;;;37.47;18.60;;;14.50;99.90;;;;;;5011697;28;20022;-72
2021/07/20 04:33:09;;;;;;;35.00;18.88;;;14.50;99.90;;;;;;5015582;28;20377;-72
2021/07/20 04:35:35;;;;;;;36.72;16.77;;;14.50;99.90;;;;;;5016035;28;20030;-72
2021/07/20 04:38:01;;;;;;;33.80;18.60;;;14.50;99.90;;;;;;5014872;28;20062;-72
2021/07/20 04:40:27;;;;;;;31.65;17.20;;;14.60;99.90;;;;;;5016086;28;20393;-72
2021/07/20 04:42:53;;;;;;;33.13;16.90;;;14.60;99.90;;;;;;5015413;28;20038;-73
2021/07/20 04:45:19;;;;;;;36.65;18.65;;;14.60;99.90;;;;;;5011107;28;20080;-73
2021/07/20 04:47:45;;;;;;;34.75;17.85;;;14.60;99.90;;;;;;5006166;28;20022;-73
2021/07/20 04:50:13;;;;;;;32.78;16.85;;;14.70;99.90;;;;;;5015730;28;20042;-73
2021/07/20 04:52:41;;;;;;;32.22;18.10;;;14.70;99.90;;;;;;5015400;28;20060;-73
2021/07/20 04:55:08;;;;;;;29.20;16.73;;;14.70;99.90;;;;;;5015563;28;20034;-71
2021/07/20 04:57:35;;;;;;;32.50;16.48;;;14.80;99.90;;;;;;5015477;28;20034;-71
2021/07/20 05:00:02;;;;;;;28.13;15.63;;;14.80;99.90;;;;;;5014362;28;20121;-73
2021/07/20 05:02:29;;;;;;;26.85;15.07;;;14.90;99.90;;;;;;5015253;28;20453;-72
2021/07/20 05:04:56;;;;;;;32.40;15.48;;;15.00;99.90;;;;;;5014861;28;20105;-73
2021/07/20 05:07:24;;;;;;;26.67;15.57;;;15.00;99.90;;;;;;5001895;28;20030;-72
2021/07/20 05:09:51;;;;;;;33.35;16.10;;;15.10;99.90;;;;;;5015251;28;20121;-72
2021/07/20 05:12:17;;;;;;;26.38;14.82;;;15.20;99.90;;;;;;5014531;28;20517;-72
2021/07/20 05:14:43;;;;;;;27.50;14.73;;;15.20;99.90;;;;;;5015417;28;20045;-73
2021/07/20 05:17:10;;;;;;;29.88;14.82;;;15.30;99.90;;;;;;5014786;28;20112;-72
2021/07/20 05:19:36;;;;;;;30.13;14.18;;;15.40;99.90;;;;;;5014065;28;20557;-72
2021/07/20 05:22:03;;;;;;;29.17;15.35;;;15.50;99.90;;;;;;5015297;28;20022;-72
2021/07/20 05:24:31;;;;;;;27.33;14.95;;;15.50;99.90;;;;;;5015692;28;20480;-72
2021/07/20 05:26:58;;;;;;;29.42;15.50;;;15.70;99.90;;;;;;5014164;28;20105;-73
2021/07/20 05:29:25;;;;;;;30.15;16.23;;;15.70;99.90;;;;;;5015006;28;20041;-73
2021/07/20 05:31:51;;;;;;;37.33;20.55;;;15.80;99.90;;;;;;5014782;28;20378;-73
2021/07/20 05:34:18;;;;;;;37.33;21.65;;;15.80;99.90;;;;;;5013828;28;20021;-73
2021/07/20 05:36:45;;;;;;;39.13;21.73;;;15.90;99.90;;;;;;5014630;28;20100;-72
2021/07/20 05:39:14;;;;;;;37.47;21.33;;;16.00;99.90;;;;;;4997066;28;20038;-73
2021/07/20 05:41:41;;;;;;;32.08;20.63;;;16.10;99.90;;;;;;4986497;28;20477;-72
2021/07/20 05:44:11;;;;;;;33.47;18.63;;;16.10;99.90;;;;;;5013446;28;20413;-72
2021/07/20 05:46:38;;;;;;;34.22;18.67;;;16.20;99.90;;;;;;5014727;28;20026;-72
2021/07/20 05:49:04;;;;;;;32.92;18.27;;;16.20;99.90;;;;;;5013511;28;20029;-72
2021/07/20 05:51:30;;;;;;;26.42;16.35;;;16.30;99.90;;;;;;5014778;28;20429;-73
2021/07/20 05:53:56;;;;;;;26.50;15.52;;;16.40;99.90;;;;;;5014097;28;20018;-73
2021/07/20 05:56:26;;;;;;;25.85;14.45;;;16.40;99.90;;;;;;5013916;28;20084;-73
2021/07/20 05:58:52;;;;;;;24.05;13.48;;;16.50;99.90;;;;;;5014185;28;20026;-72
2021/07/20 06:01:17;;;;;;;30.63;13.93;;;16.60;99.90;;;;;;5013597;28;20110;-72
2021/07/20 06:03:46;;;;;;;21.75;12.63;;;16.60;99.90;;;;;;5014675;28;20037;-72
2021/07/20 06:06:12;;;;;;;18.85;11.95;;;16.60;99.90;;;;;;5015056;28;20030;-72
2021/07/20 06:08:38;;;;;;;17.23;11.95;;;16.80;99.90;;;;;;5014076;28;20550;-73
2021/07/20 06:11:05;;;;;;;17.73;11.50;;;16.80;99.90;;;;;;5013990;28;20064;-72
2021/07/20 06:13:40;;;;;;;16.58;11.13;;;16.90;99.90;;;;;;5014276;28;20397;-73
2021/07/20 06:16:07;;;;;;;15.13;10.10;;;16.90;99.90;;;;;;5013112;28;20037;-72
2021/07/20 06:18:35;;;;;;;20.25;10.52;;;17.00;99.90;;;;;;5014605;28;20057;-73
2021/07/20 06:21:04;;;;;;;20.33;10.20;;;17.10;99.90;;;;;;5013907;28;20020;-73
2021/07/20 06:23:34;;;;;;;11.98;9.18;;;17.10;99.90;;;;;;5013360;28;20433;-74
2021/07/20 06:26:01;;;;;;;14.35;8.73;;;17.20;99.90;;;;;;5013458;28;20057;-74
2021/07/20 06:28:27;;;;;;;14.27;9.40;;;17.30;99.90;;;;;;5013894;28;20038;-74
2021/07/20 06:30:54;;;;;;;12.18;8.57;;;17.30;99.90;;;;;;5012866;28;20022;-73
2021/07/20 06:33:21;;;;;;;15.50;8.90;;;17.30;99.90;;;;;;5014257;28;20041;-72
2021/07/20 06:35:48;;;;;;;12.48;9.02;;;17.40;99.90;;;;;;5013657;28;20080;-73
2021/07/20 06:38:17;;;;;;;20.05;8.48;;;17.40;99.90;;;;;;5013288;28;20120;-72
2021/07/20 06:40:45;;;;;;;9.98;8.32;;;17.40;99.90;;;;;;5013792;28;20025;-73
2021/07/20 06:43:14;;;;;;;11.07;8.43;;;17.50;99.90;;;;;;5014253;28;20377;-72
2021/07/20 06:45:42;;;;;;;12.10;7.40;;;17.50;99.90;;;;;;5013673;28;20102;-73
2021/07/20 06:48:12;;;;;;;11.45;8.20;;;17.60;99.90;;;;;;5013868;28;20033;-72
2021/07/20 06:50:38;;;;;;;15.77;8.57;;;17.60;99.90;;;;;;4985782;28;20065;-72
2021/07/20 06:53:04;;;;;;;12.50;7.65;;;17.70;99.90;;;;;;5013118;28;20061;-74
2021/07/20 06:55:31;;;;;;;9.55;7.78;;;17.70;99.90;;;;;;5013171;28;20057;-72
2021/07/20 06:57:57;;;;;;;12.98;8.10;;;17.70;99.90;;;;;;5012871;28;20056;-73
2021/07/20 07:00:28;;;;;;;12.13;8.43;;;17.80;99.90;;;;;;4999852;28;20026;-74
2021/07/20 07:02:57;;;;;;;;;;;17.90;99.90;;;;;;5013378;28;20474;-73
2021/07/20 07:05:25;;;;;;;11.82;7.50;;;17.90;99.90;;;;;;5012371;28;19905;-74
2021/07/20 07:07:51;;;;;;;11.32;7.80;;;17.90;99.90;;;;;;5005408;28;20026;-73
2021/07/20 07:10:18;;;;;;;8.60;7.22;;;18.00;99.90;;;;;;5006803;28;20517;-74
2021/07/20 07:12:46;;;;;;;9.93;7.40;;;18.00;99.90;;;;;;5012188;28;20033;-72
2021/07/20 07:15:13;;;;;;;11.23;7.30;;;18.00;99.90;;;;;;5013264;28;20077;-72
2021/07/20 07:17:40;;;;;;;9.57;7.30;;;18.10;99.90;;;;;;5012561;28;20113;-73
2021/07/20 07:20:06;;;;;;;11.23;7.45;;;18.10;99.90;;;;;;5012263;28;20026;-73
2021/07/20 07:22:35;;;;;;;10.80;7.43;;;18.10;99.90;;;;;;5012436;28;20076;-74
2021/07/20 07:25:02;;;;;;;8.77;7.15;;;18.20;99.90;;;;;;5012355;28;20490;-74
2021/07/20 07:27:28;;;;;;;10.80;7.28;;;18.30;99.90;;;;;;5012033;28;20083;-73
2021/07/20 07:29:56;;;;;;;9.02;7.18;;;18.40;99.90;;;;;;5012324;28;20022;-72
2021/07/20 07:32:22;;;;;;;14.60;8.18;;;18.40;99.90;;;;;;5012249;28;20448;-73
2021/07/20 07:34:48;;;;;;;9.25;7.28;;;18.40;99.90;;;;;;5011524;28;20092;-74
2021/07/20 07:37:22;;;;;;;10.30;7.40;;;18.50;99.90;;;;;;5012787;28;20058;-73
2021/07/20 07:39:51;;;;;;;8.95;7.15;;;18.50;99.90;;;;;;5011554;28;20030;-72
2021/07/20 07:42:18;;;;;;;10.13;7.85;;;18.50;99.90;;;;;;5012804;28;20490;-73
2021/07/20 07:44:47;;;;;;;8.63;7.70;;;18.60;99.90;;;;;;4995682;28;20041;-73
2021/07/20 07:47:13;;;;;;;9.60;7.85;;;18.60;99.90;;;;;;5011830;28;20026;-73
2021/07/20 07:49:39;;;;;;;10.20;7.72;;;18.60;99.90;;;;;;5012143;28;20026;-73
2021/07/20 07:52:07;;;;;;;8.18;6.65;;;18.50;99.90;;;;;;5011948;28;20062;-74
2021/07/20 07:54:33;;;;;;;9.02;6.70;;;18.60;99.90;;;;;;5011647;28;20068;-72
2021/07/20 07:56:59;;;;;;;10.48;6.65;;;18.70;99.90;;;;;;5012239;28;20053;-72
2021/07/20 07:59:27;;;;;;;9.05;7.65;;;18.70;99.90;;;;;;5004276;28;20062;-73
2021/07/20 08:01:55;;;;;;;10.20;6.97;;;18.70;99.90;;;;;;5006053;28;20065;-73
2021/07/20 08:04:24;;;;;;;11.68;7.70;;;18.80;99.90;;;;;;5012226;28;20034;-73
2021/07/20 08:06:52;;;;;;;11.57;7.43;;;18.80;99.90;;;;;;5015943;28;20026;-73
2021/07/20 08:09:20;;;;;;;11.18;7.43;;;18.90;99.90;;;;;;4998955;28;20027;-73
2021/07/20 08:11:48;;;;;;;9.57;7.95;;;19.00;99.90;;;;;;5013414;28;20095;-73
2021/07/20 08:14:14;;;;;;;10.77;7.07;;;19.00;99.90;;;;;;5019185;28;20061;-72
2021/07/20 08:16:44;;;;;;;7.45;6.22;;;19.00;99.90;;;;;;5017812;28;20052;-73
2021/07/20 08:19:11;;;;;;;6.72;6.07;;;19.00;99.90;;;;;;5019050;28;20049;-74
2021/07/20 08:21:38;;;;;;;9.80;6.78;;;19.20;99.90;;;;;;5019065;28;20048;-73
2021/07/20 08:24:04;;;;;;;8.43;6.30;;;19.20;99.90;;;;;;5017928;28;20038;-73
2021/07/20 08:26:39;;;;;;;12.35;6.90;;;19.20;99.90;;;;;;5018665;28;20101;-73
2021/07/20 08:29:08;;;;;;;6.75;6.15;;;19.30;99.90;;;;;;5017581;28;20034;-73
2021/07/20 08:31:41;;;;;;;9.63;7.20;;;19.30;99.90;;;;;;5018876;28;20034;-73
2021/07/20 08:34:08;;;;;;;6.93;5.82;;;19.40;99.90;;;;;;5018661;28;20026;-73
2021/07/20 08:36:38;;;;;;;10.23;6.47;;;19.50;99.90;;;;;;5004317;28;20555;-72
2021/07/20 08:39:06;;;;;;;6.70;6.05;;;19.50;99.90;;;;;;5018019;28;20132;-72
2021/07/20 08:42:06;;;;;;;7.75;6.95;;;19.50;99.90;;;;;;5018907;28;20022;-72
2021/07/20 08:44:50;;;;;;;11.18;6.80;;;19.50;99.90;;;;;;5016573;28;20062;-73
2021/07/20 08:47:26;;;;;;;10.25;6.70;;;19.60;99.90;;;;;;5018559;28;20446;-73
2021/07/20 08:49:55;;;;;;;9.30;7.25;;;19.70;99.90;;;;;;5017810;28;20377;-73
2021/07/20 08:52:40;;;;;;;10.18;7.18;;;19.70;99.90;;;;;;5018393;28;20026;-73
2021/07/20 08:55:12;;;;;;;9.80;6.78;;;19.80;99.90;;;;;;5018457;28;20025;-74
2021/07/20 08:57:47;;;;;;;7.80;6.78;;;19.80;99.90;;;;;;5018184;28;20116;-74
2021/07/20 09:00:16;;;;;;;11.77;7.80;;;19.80;99.90;;;;;;5018563;28;20030;-73
2021/07/20 09:02:51;;;;;;;7.85;7.00;;;19.90;99.90;;;;;;5018275;28;20026;-72
2021/07/20 09:05:27;;;;;;;9.23;7.00;;;19.90;99.90;;;;;;5017800;28;20528;-73
2021/07/20 09:08:04;;;;;;;7.47;6.63;;;19.90;99.90;;;;;;5018429;28;20088;-73
2021/07/20 09:10:40;;;;;;;9.98;7.10;;;19.90;99.90;;;;;;5018160;28;20042;-73
2021/07/20 09:13:11;;;;;;;8.38;6.75;;;20.00;99.90;;;;;;5017632;28;20025;-74
2021/07/20 09:15:42;;;;;;;10.27;7.60;;;20.00;99.90;;;;;;5019096;28;20021;-73
2021/07/20 09:18:31;;;;;;;8.20;7.07;;;20.10;99.90;;;;;;5016048;28;20041;-73
2021/07/20 09:21:00;;;;;;;11.30;7.72;;;20.20;99.90;;;;;;5014855;28;20076;-73
2021/07/20 09:23:35;;;;;;;10.75;7.95;;;20.20;99.60;;;;;;5015435;28;20026;-73
2021/07/20 09:26:11;;;;;;;8.10;6.80;;;20.10;99.00;;;;;;5014155;28;20108;-74
2021/07/20 09:28:52;;;;;;;10.25;7.60;;;20.20;99.50;;;;;;5015167;28;20026;-73
2021/07/20 09:31:47;;;;;;;9.25;7.10;;;20.30;99.60;;;;;;5015189;28;20045;-74
2021/07/20 09:34:25;;;;;;;10.35;7.88;;;20.30;99.30;;;;;;5014375;28;20030;-73
2021/07/20 09:37:15;;;;;;;11.23;7.65;;;20.30;99.60;;;;;;5015063;28;20144;-73
2021/07/20 09:40:04;;;;;;;8.43;7.57;;;20.40;99.00;;;;;;5014347;28;20034;-72
2021/07/20 09:42:50;;;;;;;8.93;7.72;;;20.40;98.50;;;;;;5015075;28;20381;-72
2021/07/20 09:45:19;;;;;;;9.68;7.50;;;20.40;99.00;;;;;;5010499;28;20113;-74
2021/07/20 09:48:22;;;;;;;8.38;7.05;;;20.50;99.10;;;;;;5013711;28;20104;-72
2021/07/20 09:51:16;;;;;;;11.43;7.63;;;20.60;99.00;;;;;;4989529;28;20026;-73
2021/07/20 09:53:53;;;;;;;11.40;7.72;;;20.70;98.30;;;;;;5013783;28;20018;-73
2021/07/20 09:56:48;;;;;;;9.57;7.68;;;20.60;98.30;;;;;;5014274;28;20474;-73
2021/07/20 09:59:41;;;;;;;9.32;7.82;;;20.60;98.80;;;;;;5013980;28;20038;-72
2021/07/20 10:02:15;;;;;;;8.63;7.32;;;20.80;98.90;;;;;;5012965;28;20022;-72
2021/07/20 10:05:02;;;;;;;9.07;7.40;;;20.90;99.10;;;;;;5014102;28;20026;-73
2021/07/20 10:07:53;;;;;;;18.38;8.80;;;21.00;98.20;;;;;;5013018;28;20025;-72
2021/07/20 10:10:26;;;;;;;9.82;7.47;;;21.00;98.60;;;;;;5014026;28;20196;-73
2021/07/20 10:13:20;;;;;;;10.75;8.50;;;21.10;98.40;;;;;;5013644;28;20026;-73
2021/07/20 10:15:50;;;;;;;10.52;7.97;;;21.20;98.10;;;;;;5013008;28;20034;-74
2021/07/20 10:18:34;;;;;;;9.35;8.35;;;21.20;98.00;;;;;;5013651;28;20393;-74
2021/07/20 10:21:02;;;;;;;12.23;8.07;;;21.40;98.10;;;;;;5014014;28;20129;-73
2021/07/20 10:23:46;;;;;;;8.95;7.20;;;21.50;97.90;;;;;;5013292;28;20152;-72
2021/07/20 10:26:21;;;;;;;10.95;7.68;;;21.60;98.10;;;;;;5013976;28;20018;-73
2021/07/20 10:28:56;;;;;;;9.38;7.65;;;21.70;97.70;;;;;;5000591;28;20478;-73
2021/07/20 10:31:30;;;;;;;9.00;7.78;;;21.80;97.50;;;;;;5013007;28;20036;-74
2021/07/20 10:34:06;;;;;;;11.45;6.72;;;21.90;97.10;;;;;;5013527;28;20032;-72
2021/07/20 10:36:53;;;;;;;10.27;8.18;;;21.90;96.80;;;;;;5012917;28;20057;-73
2021/07/20 10:39:26;;;;;;;10.52;7.47;;;22.00;96.20;;;;;;5013615;28;20509;-72
2021/07/20 10:42:08;;;;;;;11.27;8.15;;;21.90;96.40;;;;;;5014649;28;20017;-73
2021/07/20 10:44:52;;;;;;;9.48;8.20;;;21.90;96.50;;;;;;5012768;28;20026;-74
2021/07/20 10:47:21;;;;;;;15.20;8.88;;;21.90;96.30;;;;;;5013694;28;20048;-73
2021/07/20 10:49:49;;;;;;;10.02;7.53;;;21.90;96.00;;;;;;5012674;28;20034;-72
2021/07/20 10:52:20;;;;;;;9.60;8.30;;;21.80;96.50;;;;;;5014175;28;20045;-72
2021/07/20 10:54:55;;;;;;;15.68;9.35;;;21.80;95.60;;;;;;5013214;28;20022;-73
2021/07/20 10:57:27;;;;;;;9.43;7.53;;;21.80;95.70;;;;;;5012622;28;20026;-73
2021/07/20 11:00:01;;;;;;;17.08;9.30;;;21.70;96.20;;;;;;5013394;28;20426;-73
2021/07/20 11:02:31;;;;;;;12.10;7.97;;;21.70;96.40;;;;;;5013091;28;20462;-73
2021/07/20 11:05:07;;;;;;;12.17;8.87;;;21.70;96.60;;;;;;5000691;28;20026;-72
2021/07/20 11:07:39;;;;;;;9.45;7.75;;;21.70;96.20;;;;;;5012265;28;20265;-73
2021/07/20 11:10:08;;;;;;;14.73;8.40;;;21.70;96.60;;;;;;5012709;28;20545;-72
2021/07/20 11:12:37;;;;;;;13.40;8.70;;;21.80;96.10;;;;;;5012270;28;20025;-73
2021/07/20 11:15:04;;;;;;;11.15;7.97;;;21.90;96.30;;;;;;5012719;28;20033;-73
2021/07/20 11:17:32;;;;;;;10.60;8.52;;;22.00;95.90;;;;;;5013062;28;20057;-73
2021/07/20 11:20:01;;;;;;;12.43;8.02;;;22.20;95.80;;;;;;5012719;28;20489;-73
2021/07/20 11:22:28;;;;;;;8.52;7.45;;;22.30;95.70;;;;;;5012825;28;20026;-73
2021/07/20 11:24:54;;;;;;;15.65;8.27;;;22.40;95.50;;;;;;5012386;28;20041;-74
2021/07/20 11:27:21;;;;;;;11.05;7.90;;;22.50;94.80;;;;;;5013208;28;20026;-73
2021/07/20 11:29:48;;;;;;;11.20;7.57;;;22.60;95.00;;;;;;5012786;28;20124;-72
2021/07/20 11:32:21;;;;;;;13.20;8.32;;;22.60;94.90;;;;;;5000127;28;20026;-73
2021/07/20 11:34:54;;;;;;;11.75;8.57;;;22.70;94.70;;;;;;4997844;28;20112;-73
2021/07/20 11:37:28;;;;;;;8.68;7.32;;;22.70;94.40;;;;;;5012958;28;20052;-73
2021/07/20 11:40:16;;;;;;;9.48;7.45;;;22.70;94.70;;;;;;5011466;28;20037;-73
2021/07/20 11:42:44;;;;;;;8.32;7.07;;;22.90;93.60;;;;;;5012425;28;20034;-72
2021/07/20 11:45:13;;;;;;;9.88;7.95;;;22.80;94.10;;;;;;5012677;28;20042;-72
2021/07/20 11:47:52;;;;;;;8.68;7.63;;;22.90;93.60;;;;;;5012164;28;20029;-73
2021/07/20 11:50:28;;;;;;;10.20;8.25;;;22.90;94.40;;;;;;5012709;28;20049;-72
2021/07/20 11:53:02;;;;;;;12.63;7.55;;;22.90;93.20;;;;;;5011662;28;20052;-73
2021/07/20 11:55:57;;;;;;;10.82;8.25;;;22.80;94.00;;;;;;5012190;28;20501;-73
2021/07/20 11:58:50;;;;;;;9.70;7.80;;;22.80;93.60;;;;;;5012436;28;20041;-73
2021/07/20 12:02:01;;;;;;;8.85;7.47;;;22.80;93.50;;;;;;4991424;28;20060;-72
2021/07/20 12:04:38;;;;;;;;;;;22.80;93.80;;;;;;4972341;28;20042;-73
2021/07/20 12:07:40;;;;;;;10.20;8.25;;;22.90;93.80;;;;;;5011702;28;19910;-73
2021/07/20 12:10:24;;;;;;;11.05;8.73;;;22.90;93.30;;;;;;5011760;28;20160;-73
2021/07/20 12:12:57;;;;;;;10.18;8.35;;;22.90;93.30;;;;;;4986346;28;20025;-73
2021/07/20 12:15:25;;;;;;;12.13;8.57;;;22.80;93.20;;;;;;5011931;28;20048;-73
2021/07/20 12:17:51;;;;;;;11.15;8.10;;;22.80;93.90;;;;;;5011964;28;20074;-73
2021/07/20 12:20:20;;;;;;;16.85;9.77;;;22.90;93.60;;;;;;5012281;28;20033;-73
2021/07/20 12:22:58;;;;;;;10.20;8.13;;;22.90;93.70;;;;;;5011094;28;20373;-72
2021/07/20 12:25:25;;;;;;;11.52;8.98;;;23.00;93.00;;;;;;5012697;28;20037;-73
2021/07/20 12:27:54;;;;;;;13.02;9.32;;;23.10;92.40;;;;;;5011780;28;20462;-74
2021/07/20 12:30:21;;;;;;;11.40;8.70;;;22.90;92.80;;;;;;5011780;28;20384;-73
2021/07/20 12:32:48;;;;;;;12.30;8.57;;;22.80;93.10;;;;;;4997634;28;20018;-73
2021/07/20 12:35:20;;;;;;;11.65;8.40;;;22.90;93.40;;;;;;5011191;28;20026;-72
2021/07/20 12:38:03;;;;;;;12.32;8.25;;;23.00;93.00;;;;;;5011686;28;20041;-72
2021/07/20 12:40:30;;;;;;;10.63;9.13;;;23.20;92.80;;;;;;5012086;28;20084;-73
2021/07/20 12:43:15;;;;;;;11.95;8.48;;;23.30;92.70;;;;;;5010867;28;20026;-73
2021/07/20 12:45:44;;;;;;;10.90;8.43;;;23.50;92.40;;;;;;5011722;28;20033;-73
2021/07/20 12:48:28;;;;;;;9.65;8.07;;;23.70;92.50;;;;;;5012136;28;20022;-73
2021/07/20 12:50:56;;;;;;;12.55;8.52;;;23.90;92.30;;;;;;4987886;28;20165;-73
2021/07/20 12:53:22;;;;;;;9.77;8.55;;;24.10;91.80;;;;;;5014349;28;20037;-73
2021/07/20 12:55:48;;;;;;;9.40;8.40;;;24.30;91.70;;;;;;5015556;28;20052;-73
2021/07/20 12:58:17;;;;;;;10.07;8.57;;;24.30;90.90;;;;;;5002559;28;20045;-72
2021/07/20 13:00:44;;;;;;;13.88;8.63;;;24.30;90.70;;;;;;5014507;28;20393;-73